createdAt,value
2023-05-17T00:01:25.385Z,9.18
2023-05-17T00:03:54.322Z,9.17
2023-05-17T00:06:21.709Z,9.06
2023-05-17T00:08:50.983Z,9.14
2023-05-17T00:11:18.594Z,9.11
2023-05-17T00:13:49.165Z,9.19
2023-05-17T00:16:19.045Z,9.12
2023-05-17T00:18:46.082Z,9.06
2023-05-17T00:21:14.690Z,8.96
2023-05-17T00:23:41.979Z,8.85
2023-05-17T00:26:10.462Z,8.92
2023-05-17T00:28:37.466Z,8.86
2023-05-17T00:31:05.800Z,8.86
2023-05-17T00:33:34.432Z,8.89
2023-05-17T00:36:03.074Z,8.84
2023-05-17T00:38:31.820Z,8.74
2023-05-17T00:40:59.352Z,8.73
2023-05-17T00:43:26.792Z,8.74
2023-05-17T00:48:34.189Z,8.68
2023-05-17T00:53:43.274Z,8.58
2023-05-17T00:56:11.027Z,8.65
2023-05-17T00:58:43.267Z,8.38
2023-05-17T01:01:10.237Z,8.53
2023-05-17T01:03:40.205Z,8.35
2023-05-17T01:06:09.006Z,8.51
2023-05-17T01:08:39.012Z,8.43
2023-05-17T01:11:14.571Z,8.44
2023-05-17T01:14:09.043Z,8.41
2023-05-17T01:16:48.744Z,8.24
2023-05-17T01:19:40.876Z,8.36
2023-05-17T01:22:17.679Z,8.30
2023-05-17T01:25:29.732Z,8.31
2023-05-17T01:28:00.657Z,8.28
2023-05-17T01:33:10.279Z,8.23
2023-05-17T01:35:37.181Z,8.12
2023-05-17T01:38:04.159Z,7.94
2023-05-17T01:40:36.557Z,7.88
2023-05-17T01:43:15.498Z,8.12
2023-05-17T01:46:02.092Z,8.13
2023-05-17T01:48:36.632Z,8.13
2023-05-17T01:51:04.966Z,8.20
2023-05-17T01:53:50.905Z,8.22
2023-05-17T01:59:17.125Z,7.91
2023-05-17T02:01:50.475Z,8.00
2023-05-17T02:04:24.978Z,7.96
2023-05-17T02:06:53.438Z,7.72
2023-05-17T02:09:20.302Z,7.84
2023-05-17T02:11:49.020Z,7.96
2023-05-17T02:14:16.978Z,7.84
2023-05-17T02:16:48.199Z,7.92
2023-05-17T02:19:19.669Z,7.74
2023-05-17T02:21:53.825Z,7.75
2023-05-17T02:24:23.018Z,7.75
2023-05-17T02:26:50.650Z,7.78
2023-05-17T02:29:17.606Z,7.83
2023-05-17T02:31:48.054Z,7.81
2023-05-17T02:34:15.144Z,7.75
2023-05-17T02:36:46.596Z,7.68
2023-05-17T02:39:16.701Z,7.67
2023-05-17T02:41:43.482Z,7.62
2023-05-17T02:44:14.457Z,7.77
2023-05-17T02:46:58.372Z,7.65
2023-05-17T02:49:57.478Z,7.69
2023-05-17T02:52:34.097Z,7.60
2023-05-17T02:55:00.837Z,7.53
2023-05-17T02:57:28.502Z,7.63
2023-05-17T02:59:56.378Z,7.66
2023-05-17T03:02:23.446Z,7.63
2023-05-17T03:04:51.661Z,7.80
2023-05-17T03:07:21.295Z,7.78
2023-05-17T03:09:48.874Z,7.76
2023-05-17T03:12:16.950Z,7.65
2023-05-17T03:14:45.614Z,7.76
2023-05-17T03:17:12.476Z,7.74
2023-05-17T03:19:49.193Z,7.62
2023-05-17T03:22:18.346Z,7.69
2023-05-17T03:24:52.946Z,7.64
2023-05-17T03:27:20.007Z,7.56
2023-05-17T03:29:50.228Z,7.55
2023-05-17T03:32:26.133Z,7.43
2023-05-17T03:35:01.097Z,7.41
2023-05-17T03:37:27.798Z,7.58
2023-05-17T03:39:54.874Z,7.53
2023-05-17T03:42:27.920Z,7.53
2023-05-17T03:47:35.334Z,7.47
2023-05-17T03:50:02.256Z,7.49
2023-05-17T03:52:30.101Z,7.50
2023-05-17T03:54:57.126Z,7.55
2023-05-17T03:57:31.817Z,7.55
2023-05-17T04:00:17.729Z,7.36
2023-05-17T04:02:49.233Z,7.49
2023-05-17T04:05:18.565Z,7.59
2023-05-17T04:07:53.262Z,7.60
2023-05-17T04:10:20.238Z,7.76
2023-05-17T04:12:48.939Z,7.70
2023-05-17T04:15:28.159Z,7.75
2023-05-17T04:17:57.999Z,7.73
2023-05-17T04:20:27.736Z,7.67
2023-05-17T04:22:56.749Z,7.67
2023-05-17T04:28:08.994Z,7.98
2023-05-17T04:30:46.202Z,8.01
2023-05-17T04:33:18.397Z,7.93
2023-05-17T04:38:36.012Z,8.19
2023-05-17T04:41:10.110Z,8.15
2023-05-17T04:43:38.640Z,8.22
2023-05-17T04:46:07.748Z,8.39
2023-05-17T04:48:38.049Z,8.33
2023-05-17T04:51:05.184Z,8.50
2023-05-17T04:53:35.722Z,8.52
2023-05-17T04:56:06.578Z,8.54
2023-05-17T04:59:03.837Z,8.59
2023-05-17T05:01:32.703Z,8.56
2023-05-17T05:04:08.039Z,8.60
2023-05-17T05:06:42.468Z,8.75
2023-05-17T05:09:33.641Z,8.76
2023-05-17T05:12:03.803Z,8.83
2023-05-17T05:14:32.327Z,8.79
2023-05-17T05:17:01.513Z,8.87
2023-05-17T05:19:29.434Z,8.75
2023-05-17T05:21:58.661Z,9.06
2023-05-17T05:24:27.448Z,9.09
2023-05-17T05:27:27.162Z,9.13
2023-05-17T05:30:07.248Z,9.11
2023-05-17T05:32:34.338Z,9.37
2023-05-17T05:37:44.794Z,9.54
2023-05-17T05:40:16.230Z,9.46
2023-05-17T05:42:51.517Z,9.48
2023-05-17T05:45:20.461Z,9.68
2023-05-17T05:47:48.757Z,9.62
2023-05-17T05:50:17.506Z,9.84
2023-05-17T05:56:05.336Z,10.18
2023-05-17T05:58:32.586Z,10.26
2023-05-17T06:01:00.352Z,10.32
2023-05-17T06:03:34.794Z,10.50
2023-05-17T06:06:03.686Z,10.47
2023-05-17T06:08:32.486Z,10.65
2023-05-17T06:11:00.389Z,10.68
2023-05-17T06:13:31.555Z,10.76
2023-05-17T06:16:03.481Z,10.88
2023-05-17T06:21:23.172Z,10.83
2023-05-17T06:24:12.902Z,10.85
2023-05-17T06:26:46.599Z,10.84
2023-05-17T06:29:29.625Z,10.86
2023-05-17T06:32:01.974Z,10.87
2023-05-17T06:34:30.857Z,11.09
2023-05-17T06:36:58.699Z,11.03
2023-05-17T06:39:28.900Z,11.59
2023-05-17T06:41:55.687Z,12.05
2023-05-17T06:44:24.195Z,12.76
2023-05-17T06:46:52.063Z,13.22
2023-05-17T06:49:21.216Z,13.75
2023-05-17T06:51:49.224Z,13.97
2023-05-17T06:54:15.960Z,14.31
2023-05-17T06:56:43.844Z,14.79
2023-05-17T06:59:12.374Z,14.92
2023-05-17T07:01:43.272Z,15.13
2023-05-17T07:04:12.812Z,15.30
2023-05-17T07:06:40.457Z,15.17
2023-05-17T07:09:08.217Z,15.37
2023-05-17T07:11:37.957Z,15.83
2023-05-17T07:14:05.559Z,15.92
2023-05-17T07:16:32.461Z,16.02
2023-05-17T07:19:01.308Z,15.61
2023-05-17T07:21:31.323Z,15.79
2023-05-17T07:24:01.223Z,15.95
2023-05-17T07:26:28.050Z,16.24
2023-05-17T07:28:55.213Z,15.89
2023-05-17T07:31:25.232Z,15.78
2023-05-17T07:33:52.284Z,15.43
2023-05-17T07:36:25.827Z,15.21
2023-05-17T07:38:52.724Z,15.02
2023-05-17T07:41:23.123Z,14.69
2023-05-17T07:43:51.624Z,14.19
2023-05-17T07:46:20.860Z,13.78
2023-05-17T07:48:49.924Z,13.50
2023-05-17T07:51:17.799Z,13.31
2023-05-17T07:53:45.896Z,13.16
2023-05-17T07:56:14.663Z,12.90
2023-05-17T07:58:42.943Z,12.96
2023-05-17T08:01:10.609Z,12.89
2023-05-17T08:03:40.183Z,13.22
2023-05-17T08:06:09.305Z,13.38
2023-05-17T08:08:36.522Z,13.34
2023-05-17T08:11:03.329Z,13.56
2023-05-17T08:13:31.355Z,13.46
2023-05-17T08:16:12.731Z,13.46
2023-05-17T08:18:44.376Z,13.36
2023-05-17T08:21:14.778Z,13.41
2023-05-17T08:23:43.118Z,13.52
2023-05-17T08:26:12.558Z,13.53
2023-05-17T08:28:39.536Z,13.68
2023-05-17T08:31:07.921Z,13.94
2023-05-17T08:33:34.834Z,14.18
2023-05-17T08:36:03.285Z,14.18
2023-05-17T08:38:33.410Z,14.27
2023-05-17T08:41:02.986Z,14.46
2023-05-17T08:43:31.370Z,14.84
2023-05-17T08:46:05.979Z,15.04
2023-05-17T08:48:36.992Z,15.13
2023-05-17T08:51:08.220Z,14.91
2023-05-17T08:53:36.177Z,14.55
2023-05-17T08:56:07.327Z,14.46
2023-05-17T08:58:54.862Z,14.39
2023-05-17T09:01:28.908Z,14.08
2023-05-17T09:03:59.569Z,14.06
2023-05-17T09:06:27.229Z,14.01
2023-05-17T09:08:58.675Z,13.92
2023-05-17T09:11:31.250Z,13.83
2023-05-17T09:14:03.610Z,14.08
2023-05-17T09:16:33.433Z,14.04
2023-05-17T09:19:01.223Z,14.01
2023-05-17T09:21:38.690Z,14.15
2023-05-17T09:24:09.250Z,14.14
2023-05-17T09:26:51.642Z,14.17
2023-05-17T09:29:21.016Z,14.36
2023-05-17T09:31:49.889Z,14.68
2023-05-17T09:34:22.021Z,14.66
2023-05-17T09:36:50.246Z,15.08
2023-05-17T09:39:17.561Z,15.05
2023-05-17T09:41:49.923Z,14.85
2023-05-17T09:44:20.123Z,14.83
2023-05-17T09:46:53.260Z,14.84
2023-05-17T09:49:21.993Z,14.98
2023-05-17T09:51:52.283Z,14.70
2023-05-17T09:54:19.303Z,14.70
2023-05-17T09:56:57.192Z,14.73
2023-05-17T09:59:31.194Z,15.28
2023-05-17T10:02:00.232Z,15.24
2023-05-17T10:04:33.220Z,15.33
2023-05-17T10:07:01.199Z,15.49
2023-05-17T10:09:34.863Z,15.52
2023-05-17T10:12:12.382Z,15.66
2023-05-17T10:14:40.494Z,15.61
2023-05-17T10:17:09.881Z,15.61
2023-05-17T10:19:37.647Z,15.54
2023-05-17T10:22:21.518Z,15.47
2023-05-17T10:25:01.333Z,15.58
2023-05-17T10:27:41.725Z,15.94
2023-05-17T10:30:09.503Z,16.09
2023-05-17T10:32:36.728Z,16.33
2023-05-17T10:35:11.854Z,16.33
2023-05-17T10:37:40.511Z,16.17
2023-05-17T10:40:16.169Z,15.90
2023-05-17T10:42:48.217Z,15.48
2023-05-17T10:45:15.621Z,15.41
2023-05-17T10:47:46.359Z,15.13
2023-05-17T10:50:15.039Z,15.16
2023-05-17T10:52:51.025Z,15.04
2023-05-17T10:55:25.579Z,14.86
2023-05-17T10:58:29.082Z,14.77
2023-05-17T11:01:01.503Z,14.71
2023-05-17T11:03:52.785Z,14.92
2023-05-17T11:06:25.523Z,15.54
2023-05-17T11:09:20.469Z,16.15
2023-05-17T11:12:19.128Z,16.70
2023-05-17T11:14:45.864Z,16.57
2023-05-17T11:17:34.658Z,16.24
2023-05-17T11:20:13.456Z,16.12
2023-05-17T11:25:52.101Z,16.14
2023-05-17T11:28:32.727Z,16.19
2023-05-17T11:31:04.277Z,15.90
2023-05-17T11:33:46.550Z,15.89
2023-05-17T11:39:16.301Z,16.35
2023-05-17T11:41:59.061Z,16.32
2023-05-17T11:44:45.691Z,16.38
2023-05-17T11:47:13.207Z,16.33
2023-05-17T11:49:56.230Z,16.14
2023-05-17T12:08:01.536Z,16.23
2023-05-17T12:10:28.402Z,16.12
2023-05-17T12:13:07.633Z,16.27
2023-05-17T12:15:37.240Z,16.21
2023-05-17T12:18:16.076Z,16.44
2023-05-17T12:21:03.769Z,16.32
2023-05-17T12:24:32.950Z,16.23
2023-05-17T12:27:18.200Z,16.24
2023-05-17T12:29:45.144Z,16.11
2023-05-17T12:32:13.104Z,16.09
2023-05-17T12:34:40.964Z,16.11
2023-05-17T12:37:17.981Z,16.06
2023-05-17T12:39:47.959Z,16.05
2023-05-17T12:42:16.992Z,16.03
2023-05-17T12:44:43.814Z,16.29
2023-05-17T12:47:11.815Z,16.49
2023-05-17T12:50:04.290Z,16.65
2023-05-17T12:52:35.822Z,16.55
2023-05-17T12:55:07.306Z,16.70
2023-05-17T12:57:39.627Z,16.68
2023-05-17T13:00:10.522Z,16.72
2023-05-17T13:02:43.628Z,16.81
2023-05-17T13:05:27.266Z,16.66
2023-05-17T13:08:00.354Z,16.81
2023-05-17T13:10:30.895Z,16.58
2023-05-17T13:16:02.465Z,16.45
2023-05-17T13:21:35.413Z,16.78
2023-05-17T13:24:06.652Z,16.83
2023-05-17T13:26:34.899Z,16.67
2023-05-17T13:29:04.028Z,16.94
2023-05-17T13:31:41.107Z,16.93
2023-05-17T13:36:50.190Z,16.85
2023-05-17T13:39:21.172Z,16.86
2023-05-17T13:41:49.082Z,16.95
2023-05-17T13:44:25.638Z,16.65
2023-05-17T13:46:54.003Z,16.95
2023-05-17T13:49:21.042Z,17.06
2023-05-17T13:58:00.207Z,17.49
2023-05-17T14:00:29.662Z,17.42
2023-05-17T14:02:56.916Z,17.12
2023-05-17T14:05:33.419Z,17.34
2023-05-17T14:08:01.468Z,17.25
2023-05-17T14:10:36.550Z,17.09
2023-05-17T14:13:06.202Z,17.11
2023-05-17T14:15:41.310Z,17.19
2023-05-17T14:18:09.873Z,17.48
2023-05-17T14:23:25.932Z,17.46
2023-05-17T14:28:55.833Z,17.12
2023-05-17T14:31:28.288Z,17.26
2023-05-17T14:33:56.914Z,17.32
2023-05-17T14:39:05.991Z,17.29
2023-05-17T14:47:09.266Z,17.17
2023-05-17T14:49:39.429Z,17.21
2023-05-17T14:52:14.254Z,17.25
2023-05-17T14:54:46.139Z,17.48
2023-05-17T14:57:21.832Z,17.50
2023-05-17T15:02:35.280Z,17.37
2023-05-17T15:05:14.251Z,17.46
2023-05-17T15:07:45.187Z,17.46
2023-05-17T15:10:18.514Z,17.51
2023-05-17T15:12:48.942Z,17.17
2023-05-17T15:15:15.928Z,17.29
2023-05-17T15:17:47.147Z,17.23
2023-05-17T15:20:26.384Z,17.24
2023-05-17T15:22:57.956Z,17.28
2023-05-17T15:25:25.808Z,17.17
2023-05-17T15:27:52.536Z,17.15
2023-05-17T15:30:21.450Z,16.94
2023-05-17T15:32:48.837Z,17.03
2023-05-17T15:35:15.533Z,17.01
2023-05-17T15:37:46.343Z,17.14
2023-05-17T15:40:15.932Z,17.15
2023-05-17T15:42:44.526Z,17.17
2023-05-17T15:45:12.795Z,17.16
2023-05-17T15:47:44.948Z,17.01
2023-05-17T15:50:15.451Z,17.14
2023-05-17T15:58:23.617Z,16.95
2023-05-17T16:00:50.989Z,16.84
2023-05-17T16:03:19.761Z,17.05
2023-05-17T16:05:49.805Z,16.96
2023-05-17T16:08:26.786Z,16.87
2023-05-17T16:10:57.037Z,16.88
2023-05-17T16:13:24.943Z,16.90
2023-05-17T16:15:56.110Z,16.86
2023-05-17T16:18:24.490Z,17.10
2023-05-17T16:21:09.339Z,17.04
2023-05-17T16:23:36.153Z,17.08
2023-05-17T16:26:11.322Z,17.04
2023-05-17T16:28:38.258Z,17.08
2023-05-17T16:31:10.926Z,17.04
2023-05-17T16:33:41.648Z,16.94
2023-05-17T16:36:09.068Z,16.89
2023-05-17T16:38:39.334Z,16.94
2023-05-17T16:41:16.322Z,16.95
2023-05-17T16:43:51.073Z,16.87
2023-05-17T16:46:26.699Z,16.83
2023-05-17T16:51:40.674Z,16.80
2023-05-17T16:54:11.346Z,16.82
2023-05-17T16:56:39.770Z,16.76
2023-05-17T16:59:09.304Z,16.47
2023-05-17T17:04:53.589Z,16.76
2023-05-17T17:10:05.793Z,16.52
2023-05-17T17:12:49.531Z,16.52
2023-05-17T17:15:25.168Z,16.29
2023-05-17T17:17:54.153Z,16.20
2023-05-17T17:20:30.275Z,16.04
2023-05-17T17:23:02.424Z,15.93
2023-05-17T17:25:39.663Z,16.03
2023-05-17T17:28:07.125Z,15.97
2023-05-17T17:30:38.723Z,15.86
2023-05-17T17:33:12.595Z,15.72
2023-05-17T17:35:44.809Z,15.66
2023-05-17T17:38:16.832Z,15.64
2023-05-17T17:40:46.281Z,15.61
2023-05-17T17:43:15.101Z,15.57
2023-05-17T17:45:49.411Z,15.49
2023-05-17T17:48:20.364Z,15.43
2023-05-17T17:50:54.534Z,15.36
2023-05-17T17:53:24.568Z,15.42
2023-05-17T17:55:52.068Z,15.39
2023-05-17T17:58:21.122Z,15.33
2023-05-17T18:00:54.671Z,15.25
2023-05-17T18:03:22.041Z,15.15
2023-05-17T18:05:54.316Z,15.07
2023-05-17T18:08:30.208Z,15.03
2023-05-17T18:10:59.559Z,14.80
2023-05-17T18:16:20.241Z,14.90
2023-05-17T18:21:29.653Z,14.83
2023-05-17T18:23:56.449Z,14.50
2023-05-17T18:26:30.906Z,14.68
2023-05-17T18:31:47.604Z,14.50
2023-05-17T18:34:14.700Z,14.45
2023-05-17T18:39:39.769Z,14.11
2023-05-17T18:42:06.809Z,14.06
2023-05-17T18:47:18.505Z,13.97
2023-05-17T18:52:41.124Z,13.87
2023-05-17T18:55:19.704Z,13.77
2023-05-17T18:57:48.218Z,13.66
2023-05-17T19:00:18.621Z,13.57
2023-05-17T19:15:01.228Z,13.04
2023-05-17T19:17:40.106Z,12.65
2023-05-17T19:20:09.928Z,12.94
2023-05-17T19:22:41.942Z,12.88
2023-05-17T19:25:16.146Z,12.77
2023-05-17T19:30:25.609Z,12.58
2023-05-17T19:38:30.132Z,12.39
2023-05-17T19:40:59.660Z,12.32
2023-05-17T19:43:38.440Z,12.22
2023-05-17T19:46:11.633Z,12.29
2023-05-17T19:54:20.928Z,12.05
2023-05-17T19:56:49.142Z,12.10
2023-05-17T19:59:19.562Z,11.91
2023-05-17T20:01:55.278Z,11.96
2023-05-17T20:07:20.515Z,11.68
2023-05-17T20:15:22.704Z,11.65
2023-05-17T20:18:09.348Z,11.26
2023-05-17T20:24:40.426Z,11.39
2023-05-17T20:27:11.597Z,11.35
2023-05-17T20:35:06.093Z,11.31
2023-05-17T20:37:39.208Z,11.16
2023-05-17T20:40:10.039Z,11.13
2023-05-17T20:42:41.571Z,11.08
2023-05-17T20:45:14.626Z,11.02
2023-05-17T20:53:13.068Z,10.93
2023-05-17T20:59:06.269Z,10.67
2023-05-17T21:01:55.686Z,10.58
2023-05-17T21:04:24.815Z,10.52
2023-05-17T21:07:00.113Z,10.32
2023-05-17T21:09:32.159Z,10.28
2023-05-17T21:12:01.976Z,10.42
2023-05-17T21:14:39.077Z,10.42
2023-05-17T21:17:07.784Z,10.37
2023-05-17T21:25:44.452Z,10.09
2023-05-17T21:32:05.204Z,9.99
2023-05-17T21:38:11.972Z,9.91
2023-05-17T21:41:23.706Z,9.83
2023-05-17T21:43:56.513Z,9.87
2023-05-17T21:46:24.837Z,9.79
2023-05-17T21:48:52.204Z,9.74
2023-05-17T21:51:18.927Z,9.69
2023-05-17T21:53:47.209Z,9.65
2023-05-17T21:56:14.599Z,9.61
2023-05-17T22:04:14.189Z,9.52
2023-05-17T22:06:43.702Z,9.33
2023-05-17T22:09:11.680Z,9.34
2023-05-17T22:11:39.193Z,9.35
2023-05-17T22:14:11.677Z,9.39
2023-05-17T22:16:38.825Z,9.32
2023-05-17T22:19:11.883Z,9.33
2023-05-17T22:21:39.083Z,9.39
2023-05-17T22:24:06.785Z,9.31
2023-05-17T22:26:34.789Z,9.37
2023-05-17T22:29:01.764Z,9.38
2023-05-17T22:31:29.643Z,9.29
2023-05-17T22:33:58.159Z,9.28
2023-05-17T22:36:28.316Z,9.33
2023-05-17T22:38:58.204Z,9.32
2023-05-17T22:41:32.270Z,9.30
2023-05-17T22:44:02.588Z,9.28
2023-05-17T22:46:38.645Z,9.21
2023-05-17T22:49:05.675Z,9.06
2023-05-17T22:51:36.921Z,9.07
2023-05-17T22:54:06.469Z,9.03
2023-05-17T22:56:39.349Z,9.00
2023-05-17T22:59:06.807Z,8.84
2023-05-17T23:01:33.558Z,8.92
2023-05-17T23:04:00.332Z,8.86
2023-05-17T23:06:32.328Z,8.88
2023-05-17T23:09:01.787Z,8.74
2023-05-17T23:11:28.670Z,8.90
2023-05-17T23:13:56.245Z,8.86
2023-05-17T23:16:30.751Z,8.72
2023-05-17T23:19:00.457Z,8.67
2023-05-17T23:21:27.142Z,8.70
2023-05-17T23:23:53.930Z,8.74
2023-05-17T23:26:22.245Z,8.77
2023-05-17T23:28:53.124Z,8.71
2023-05-17T23:31:21.709Z,8.69
2023-05-17T23:33:53.228Z,8.37
2023-05-17T23:36:24.332Z,8.48
2023-05-17T23:38:53.428Z,8.45
2023-05-17T23:41:26.207Z,8.58
2023-05-17T23:43:52.984Z,8.59
2023-05-17T23:46:22.740Z,8.48
2023-05-17T23:51:35.543Z,8.50
2023-05-17T23:54:02.753Z,8.25
2023-05-17T23:56:29.445Z,8.38
2023-05-17T23:59:00.158Z,8.53
